Time;durP1;ratioP1;P1;durP2;ratioP2;P2;SDS_P1;SDS_P2;PMS_P1;PMS_P2;Temp;Humidity;BMP_temperature;BMP_pressure;BME280_temperature;BME280_humidity;BME280_pressure;Samples;Min_cycle;Max_cycle;Signal;HPM_P1;HPM_P2
2023/08/21 00:00:52;;;;;;;6.60;3.40;;;22.60;99.90;;;;;;4965528;28;20243;-84
2023/08/21 00:03:18;;;;;;;9.30;3.60;;;22.50;99.90;;;;;;4970429;28;20183;-83
2023/08/21 00:05:43;;;;;;;10.47;3.10;;;22.40;99.90;;;;;;4965515;28;20191;-83
2023/08/21 00:08:09;;;;;;;9.10;3.90;;;22.30;99.90;;;;;;4966957;28;20215;-84
2023/08/21 00:10:38;;;;;;;5.97;3.50;;;22.20;99.90;;;;;;4965228;28;20214;-81
2023/08/21 00:13:04;;;;;;;9.60;4.17;;;22.20;99.90;;;;;;4965445;28;20189;-83
2023/08/21 00:15:30;;;;;;;6.97;4.10;;;22.20;99.90;;;;;;4971839;28;20477;-85
2023/08/21 00:17:55;;;;;;;10.57;4.60;;;22.20;99.90;;;;;;4967513;28;20819;-84
2023/08/21 00:20:20;;;;;;;6.30;4.37;;;22.10;99.90;;;;;;4969623;28;20209;-84
2023/08/21 00:22:46;;;;;;;9.13;4.43;;;22.10;99.90;;;;;;4968530;28;20193;-84
2023/08/21 00:25:11;;;;;;;6.67;4.40;;;22.10;99.90;;;;;;4968666;28;20619;-83
2023/08/21 00:27:37;;;;;;;8.70;5.67;;;22.10;99.90;;;;;;4966393;28;20217;-85
2023/08/21 00:30:03;;;;;;;10.13;5.67;;;22.10;99.90;;;;;;4961680;28;20209;-84
2023/08/21 00:32:28;;;;;;;8.20;5.23;;;22.10;99.90;;;;;;4972554;28;20600;-83
2023/08/21 00:34:54;;;;;;;7.33;5.30;;;22.00;99.90;;;;;;4966896;28;20422;-83
2023/08/21 00:37:19;;;;;;;13.03;6.07;;;22.00;99.90;;;;;;4960364;28;20665;-84
2023/08/21 00:39:45;;;;;;;11.07;5.90;;;21.90;99.90;;;;;;4961209;28;20590;-83
2023/08/21 00:42:10;;;;;;;9.37;5.70;;;21.90;1.00;;;;;;4970260;28;20209;-84
2023/08/21 00:44:36;;;;;;;14.23;5.87;;;21.90;1.00;;;;;;4969592;28;20193;-84
2023/08/21 00:47:01;;;;;;;8.43;5.20;;;21.90;1.00;;;;;;4961777;28;20191;-83
2023/08/21 00:49:27;;;;;;;8.37;5.57;;;21.80;1.00;;;;;;4971710;28;20561;-84
2023/08/21 00:51:53;;;;;;;9.20;5.17;;;21.80;1.00;;;;;;4955262;28;20857;-84
2023/08/21 00:54:19;;;;;;;7.87;5.63;;;21.70;1.00;;;;;;4966026;28;20210;-83
2023/08/21 00:56:45;;;;;;;8.67;5.00;;;21.70;1.00;;;;;;4967694;28;20216;-84
2023/08/21 00:59:12;;;;;;;9.80;4.90;;;21.70;1.00;;;;;;4969841;28;20484;-84
2023/08/21 01:01:38;;;;;;;7.90;5.20;;;21.70;1.00;;;;;;4966594;28;20276;-83
2023/08/21 01:04:03;;;;;;;10.73;5.80;;;21.70;1.00;;;;;;4970901;28;20449;-84
2023/08/21 01:06:29;;;;;;;7.97;5.80;;;21.70;1.00;;;;;;4957838;28;20453;-84
2023/08/21 01:09:25;;;;;;;11.10;5.07;;;21.60;1.00;;;;;;4969755;28;20211;-83
2023/08/21 01:11:57;;;;;;;9.23;6.27;;;21.50;1.00;;;;;;4966800;28;20217;-83
2023/08/21 01:14:29;;;;;;;9.17;4.10;;;21.40;1.00;;;;;;4986533;28;20491;-84
2023/08/21 01:17:00;;;;;;;7.23;4.67;;;21.30;40.50;;;;;;4972665;28;20850;-84
2023/08/21 01:19:43;;;;;;;7.20;4.30;;;21.30;38.90;;;;;;4956831;28;20433;-84
2023/08/21 01:22:08;;;;;;;5.53;3.80;;;21.30;64.90;;;;;;4965302;28;20483;-81
2023/08/21 01:24:34;;;;;;;6.00;3.90;;;21.30;99.90;;;;;;4970947;28;20490;-84
2023/08/21 01:27:00;;;;;;;9.73;4.77;;;21.20;99.90;;;;;;4969433;28;20698;-84
2023/08/21 01:29:26;;;;;;;17.40;4.67;;;21.20;99.90;;;;;;4968595;28;20444;-84
2023/08/21 01:32:06;;;;;;;10.23;4.67;;;21.20;99.90;;;;;;4965583;28;20733;-84
2023/08/21 01:34:34;;;;;;;10.17;4.30;;;21.20;99.90;;;;;;4962882;28;21080;-84
2023/08/21 01:37:00;;;;;;;7.70;4.90;;;21.10;99.90;;;;;;4967904;28;20439;-83
2023/08/21 01:39:27;;;;;;;9.33;3.70;;;21.10;99.90;;;;;;4966005;28;20446;-84
2023/08/21 01:41:53;;;;;;;7.10;4.27;;;21.10;99.90;;;;;;4963414;28;20509;-84
2023/08/21 01:44:18;;;;;;;7.60;4.33;;;21.10;99.90;;;;;;4971804;28;20855;-83
2023/08/21 01:46:44;;;;;;;9.37;3.80;;;21.10;99.90;;;;;;4962308;28;20196;-83
2023/08/21 01:49:09;;;;;;;5.90;3.87;;;21.10;99.90;;;;;;4971757;28;20195;-84
2023/08/21 01:51:34;;;;;;;8.10;4.17;;;21.00;99.90;;;;;;4967762;28;20669;-84
2023/08/21 01:54:00;;;;;;;10.60;4.90;;;20.90;99.90;;;;;;4965153;28;20204;-83
2023/08/21 01:56:26;;;;;;;11.23;4.00;;;20.80;1.00;;;;;;4965618;28;20216;-83
2023/08/21 01:58:51;;;;;;;7.07;3.90;;;20.80;1.00;;;;;;4957555;28;20608;-83
2023/08/21 02:01:18;;;;;;;9.60;3.80;;;20.80;1.00;;;;;;4971338;28;20248;-85
2023/08/21 02:03:44;;;;;;;11.60;3.90;;;20.80;1.00;;;;;;4967459;28;20219;-83
2023/08/21 02:06:10;;;;;;;8.70;4.17;;;20.80;1.00;;;;;;4969069;28;20471;-83
2023/08/21 02:08:35;;;;;;;8.87;4.23;;;20.80;1.00;;;;;;4966054;28;20436;-85
2023/08/21 02:11:01;;;;;;;8.97;4.50;;;20.70;1.00;;;;;;4962167;28;20201;-82
2023/08/21 02:13:27;;;;;;;10.93;4.17;;;20.70;1.00;;;;;;4960638;28;20202;-83
2023/08/21 02:15:52;;;;;;;11.73;4.33;;;20.70;1.00;;;;;;4968206;28;20196;-81
2023/08/21 02:18:18;;;;;;;6.23;3.87;;;20.80;1.00;;;;;;4970000;28;20968;-85
2023/08/21 02:20:43;;;;;;;8.10;3.93;;;20.80;1.00;;;;;;4965871;28;20203;-83
2023/08/21 02:23:09;;;;;;;6.43;3.50;;;20.80;1.00;;;;;;4965342;28;20203;-83
2023/08/21 02:25:35;;;;;;;7.93;3.80;;;20.80;1.00;;;;;;4968957;28;20200;-83
2023/08/21 02:28:01;;;;;;;7.97;4.40;;;20.70;1.00;;;;;;4962492;28;20247;-85
2023/08/21 02:30:28;;;;;;;10.47;4.07;;;20.70;1.00;;;;;;4966185;28;20243;-84
2023/08/21 02:32:53;;;;;;;10.63;4.27;;;20.70;1.00;;;;;;4962832;28;20537;-83
2023/08/21 02:35:20;;;;;;;4.97;3.60;;;20.70;1.00;;;;;;4968433;28;20957;-83
2023/08/21 02:37:45;;;;;;;6.73;3.90;;;20.60;1.00;;;;;;4967541;28;20194;-83
2023/08/21 02:40:11;;;;;;;5.80;4.30;;;20.40;1.00;;;;;;4971304;28;20465;-84
2023/08/21 02:42:36;;;;;;;6.07;4.07;;;20.40;99.90;;;;;;4971810;28;20199;-83
2023/08/21 02:45:07;;;;;;;14.77;4.40;;;20.30;99.90;;;;;;4973784;28;20199;-85
2023/08/21 02:47:39;;;;;;;9.37;3.83;;;20.30;99.90;;;;;;4967393;28;20702;-83
2023/08/21 02:50:06;;;;;;;11.03;4.00;;;20.40;99.90;;;;;;4975081;28;20449;-84
2023/08/21 02:52:33;;;;;;;10.07;4.10;;;20.40;99.90;;;;;;4960230;28;20445;-85
2023/08/21 02:54:59;;;;;;;7.50;3.90;;;20.40;99.90;;;;;;4971268;28;20478;-83
2023/08/21 02:57:26;;;;;;;6.97;4.10;;;20.40;99.90;;;;;;4977618;28;20455;-84
2023/08/21 02:59:51;;;;;;;6.90;3.40;;;20.40;99.90;;;;;;4969776;28;20504;-83
2023/08/21 03:02:18;;;;;;;6.23;3.30;;;20.40;99.90;;;;;;4965210;28;20447;-84
2023/08/21 03:04:43;;;;;;;4.00;3.30;;;20.50;99.90;;;;;;4964704;28;20210;-84
2023/08/21 03:07:09;;;;;;;8.10;3.90;;;20.50;1.00;;;;;;4974519;28;20447;-83
2023/08/21 03:09:35;;;;;;;7.83;3.97;;;20.50;1.00;;;;;;4974229;28;20199;-84
2023/08/21 03:12:01;;;;;;;7.73;3.50;;;20.50;1.00;;;;;;4964230;28;20790;-83
2023/08/21 03:14:27;;;;;;;5.20;3.23;;;20.50;1.00;;;;;;4963221;28;20476;-83
2023/08/21 03:16:52;;;;;;;6.53;3.40;;;20.50;1.00;;;;;;4959145;28;20189;-83
2023/08/21 03:19:18;;;;;;;7.80;3.80;;;20.60;1.00;;;;;;4968741;28;20200;-83
2023/08/21 03:21:44;;;;;;;8.60;4.03;;;20.60;1.00;;;;;;4972428;28;20471;-83
2023/08/21 03:24:09;;;;;;;5.93;3.47;;;20.60;1.00;;;;;;4971005;28;20547;-84
2023/08/21 03:26:35;;;;;;;9.10;3.67;;;20.50;1.00;;;;;;4969443;28;20666;-83
2023/08/21 03:29:01;;;;;;;5.73;3.60;;;20.50;1.00;;;;;;4957809;28;20309;-81
2023/08/21 03:31:27;;;;;;;7.00;3.30;;;20.50;1.00;;;;;;4962013;28;20869;-84
2023/08/21 03:33:52;;;;;;;5.27;2.90;;;20.50;1.00;;;;;;4972586;28;20474;-83
2023/08/21 03:36:19;;;;;;;9.13;3.93;;;20.40;1.00;;;;;;4972958;28;20780;-83
2023/08/21 03:38:44;;;;;;;7.67;3.80;;;20.40;1.00;;;;;;4961712;28;20257;-84
2023/08/21 03:41:11;;;;;;;10.70;4.63;;;20.40;1.00;;;;;;4973675;28;20580;-86
2023/08/21 03:43:36;;;;;;;6.30;3.50;;;20.40;1.00;;;;;;4960186;28;20685;-84
2023/08/21 03:46:02;;;;;;;7.80;3.67;;;20.50;1.00;;;;;;4965673;28;20459;-83
2023/08/21 03:48:27;;;;;;;8.60;3.70;;;20.50;1.00;;;;;;4971733;28;20661;-84
2023/08/21 03:50:53;;;;;;;6.43;3.73;;;20.50;1.00;;;;;;4966378;28;20207;-83
2023/08/21 03:53:19;;;;;;;7.50;3.27;;;20.50;99.90;;;;;;4968514;28;20177;-85
2023/08/21 03:55:44;;;;;;;7.07;3.70;;;20.50;99.90;;;;;;4968025;28;20274;-84
2023/08/21 03:58:10;;;;;;;7.13;3.43;;;20.50;1.00;;;;;;4974880;28;20188;-84
2023/08/21 04:00:35;;;;;;;9.30;3.13;;;20.40;1.00;;;;;;4971012;28;20207;-84
2023/08/21 04:03:01;;;;;;;8.20;4.30;;;20.40;1.00;;;;;;4971952;28;20642;-81
2023/08/21 04:05:26;;;;;;;6.93;3.40;;;20.40;1.00;;;;;;4972032;28;20199;-83
2023/08/21 04:07:52;;;;;;;9.27;3.90;;;20.40;1.00;;;;;;4967433;28;20283;-83
2023/08/21 04:10:17;;;;;;;6.00;3.50;;;20.30;1.00;;;;;;4961744;28;20220;-83
2023/08/21 04:12:43;;;;;;;6.20;3.10;;;20.30;1.00;;;;;;4966795;28;20197;-83
2023/08/21 04:15:09;;;;;;;6.13;3.57;;;20.30;1.00;;;;;;4971310;28;20219;-84
2023/08/21 04:17:35;;;;;;;7.33;3.07;;;20.30;1.00;;;;;;4969394;28;20198;-84
2023/08/21 04:20:00;;;;;;;6.30;4.03;;;20.20;1.00;;;;;;4966659;28;20812;-84
2023/08/21 04:22:26;;;;;;;8.70;4.53;;;20.20;1.00;;;;;;4969005;28;20195;-83
2023/08/21 04:24:51;;;;;;;6.53;3.50;;;20.20;76.10;;;;;;4957395;28;20728;-83
2023/08/21 04:27:17;;;;;;;5.17;3.57;;;20.10;99.90;;;;;;4977758;28;20194;-85
2023/08/21 04:29:42;;;;;;;5.53;3.70;;;20.10;53.60;;;;;;4968041;28;20207;-83
2023/08/21 04:32:08;;;;;;;11.80;4.40;;;20.10;86.50;;;;;;4972059;28;20299;-84
2023/08/21 04:34:33;;;;;;;7.13;4.40;;;20.10;97.90;;;;;;4971405;28;20204;-82
2023/08/21 04:36:59;;;;;;;11.03;4.20;;;20.10;99.90;;;;;;4965614;28;20203;-84
2023/08/21 04:39:25;;;;;;;9.90;3.87;;;20.00;99.90;;;;;;4971839;28;20187;-85
2023/08/21 04:41:51;;;;;;;6.63;3.27;;;19.90;99.90;;;;;;4970704;28;20525;-83
2023/08/21 04:44:16;;;;;;;8.97;3.37;;;19.90;99.90;;;;;;4968594;28;20239;-83
2023/08/21 04:46:42;;;;;;;6.63;3.27;;;20.00;99.90;;;;;;4963655;28;20192;-84
2023/08/21 04:49:08;;;;;;;10.10;3.77;;;20.00;99.90;;;;;;4971849;28;20194;-85
2023/08/21 04:51:34;;;;;;;11.70;3.70;;;20.10;99.90;;;;;;4964647;28;20207;-83
2023/08/21 04:54:02;;;;;;;8.17;3.67;;;20.20;99.90;;;;;;4968463;28;20470;-84
2023/08/21 04:56:28;;;;;;;9.40;3.40;;;20.30;92.70;;;;;;4969634;28;21883;-84
2023/08/21 04:58:53;;;;;;;7.47;3.73;;;20.30;1.00;;;;;;4967545;28;20445;-84
2023/08/21 05:01:19;;;;;;;8.30;4.10;;;20.40;1.00;;;;;;4968807;28;20200;-84
2023/08/21 05:03:44;;;;;;;13.53;3.77;;;20.50;1.00;;;;;;4972136;28;20196;-83
2023/08/21 05:06:10;;;;;;;9.80;3.30;;;20.50;1.00;;;;;;4969715;28;20703;-84
2023/08/21 05:08:35;;;;;;;6.03;3.30;;;20.60;1.00;;;;;;4971730;28;20187;-83
2023/08/21 05:11:01;;;;;;;9.80;4.67;;;20.60;1.00;;;;;;4963023;28;20211;-83
2023/08/21 05:13:27;;;;;;;7.63;4.53;;;20.70;1.00;;;;;;4968442;28;20238;-85
2023/08/21 05:15:56;;;;;;;7.60;4.37;;;20.70;99.90;;;;;;4965458;28;20623;-84
2023/08/21 05:18:25;;;;;;;6.80;3.53;;;20.80;99.90;;;;;;4973175;28;20211;-81
2023/08/21 05:20:53;;;;;;;7.37;3.53;;;20.90;99.90;;;;;;4967636;28;20475;-84
2023/08/21 05:23:19;;;;;;;8.80;3.40;;;21.00;99.90;;;;;;4969960;28;20439;-83
2023/08/21 05:25:45;;;;;;;7.70;3.63;;;21.30;97.40;;;;;;4974965;28;20470;-83
2023/08/21 05:28:11;;;;;;;7.30;3.93;;;22.80;99.90;;;;;;4955105;28;20188;-84
2023/08/21 05:30:36;;;;;;;13.10;4.23;;;24.70;48.00;;;;;;4969538;28;20466;-84
2023/08/21 05:33:03;;;;;;;9.20;3.67;;;26.40;1.00;;;;;;4970995;28;20666;-84
2023/08/21 05:35:32;;;;;;;8.60;3.87;;;28.00;1.00;;;;;;4967880;28;20308;-85
2023/08/21 05:37:57;;;;;;;10.20;3.83;;;29.40;1.00;;;;;;4964461;28;20446;-84
2023/08/21 05:40:23;;;;;;;10.47;3.13;;;30.60;1.00;;;;;;4972931;28;20930;-84
2023/08/21 05:42:48;;;;;;;8.13;3.50;;;31.70;1.00;;;;;;4967450;28;20191;-85
2023/08/21 05:45:14;;;;;;;8.33;3.03;;;32.70;1.00;;;;;;4969105;28;20670;-85
2023/08/21 05:47:39;;;;;;;7.33;3.87;;;33.50;1.00;;;;;;4968487;28;20199;-83
2023/08/21 05:50:05;;;;;;;8.90;3.40;;;34.20;1.00;;;;;;4967270;28;20196;-85
2023/08/21 05:52:31;;;;;;;13.43;3.20;;;35.00;1.00;;;;;;4961945;28;20192;-86
2023/08/21 05:54:56;;;;;;;6.63;3.00;;;35.60;1.00;;;;;;4971286;28;20977;-83
2023/08/21 05:57:22;;;;;;;7.73;3.13;;;36.50;1.00;;;;;;4965817;28;20188;-85
2023/08/21 05:59:47;;;;;;;7.70;3.20;;;37.20;1.00;;;;;;4971265;28;20219;-85
2023/08/21 06:02:14;;;;;;;8.57;2.97;;;37.90;1.00;;;;;;4969062;28;20200;-86
2023/08/21 06:04:43;;;;;;;8.40;2.93;;;39.30;1.00;;;;;;4971028;28;20191;-85
2023/08/21 06:07:09;;;;;;;7.00;3.50;;;40.90;1.00;;;;;;4963985;28;20440;-85
2023/08/21 06:09:36;;;;;;;6.77;2.60;;;42.20;1.00;;;;;;4964025;28;20478;-85
2023/08/21 06:12:04;;;;;;;4.20;2.50;;;43.20;1.00;;;;;;4969552;28;20962;-84
2023/08/21 06:14:30;;;;;;;5.10;3.23;;;44.40;1.00;;;;;;4964476;28;20480;-82
2023/08/21 06:17:05;;;;;;;7.20;3.10;;;45.40;1.00;;;;;;4973490;28;20439;-84
2023/08/21 06:19:31;;;;;;;6.93;3.00;;;45.80;1.00;;;;;;4975198;28;20222;-84
2023/08/21 06:21:56;;;;;;;8.23;3.20;;;46.30;1.00;;;;;;4973032;28;20498;-83
2023/08/21 06:24:23;;;;;;;6.43;2.70;;;46.80;1.00;;;;;;4976835;28;20194;-82
2023/08/21 06:26:52;;;;;;;7.60;2.70;;;47.50;99.90;;;;;;4974013;28;20190;-82
2023/08/21 06:29:20;;;;;;;9.50;2.97;;;47.90;99.90;;;;;;4971065;28;20450;-83
2023/08/21 06:31:45;;;;;;;8.90;3.60;;;48.50;99.90;;;;;;4971565;28;20458;-83
2023/08/21 06:34:11;;;;;;;5.23;2.90;;;48.90;99.90;;;;;;4975836;28;21304;-81
2023/08/21 06:36:36;;;;;;;10.90;3.83;;;49.30;99.90;;;;;;4973213;28;20191;-83
2023/08/21 06:39:03;;;;;;;8.20;3.47;;;49.30;99.90;;;;;;4973727;28;20670;-83
2023/08/21 06:41:28;;;;;;;9.80;3.57;;;49.80;99.90;;;;;;4970375;28;20208;-81
2023/08/21 06:43:54;;;;;;;5.60;2.93;;;49.60;99.90;;;;;;4971835;28;20446;-83
2023/08/21 06:46:19;;;;;;;5.37;2.57;;;50.20;99.90;;;;;;4966274;28;20202;-84
2023/08/21 06:48:45;;;;;;;6.77;3.00;;;50.60;99.90;;;;;;4973240;28;20596;-81
2023/08/21 06:51:11;;;;;;;6.50;3.50;;;50.80;99.90;;;;;;4971799;28;20207;-83
2023/08/21 06:53:37;;;;;;;6.00;3.30;;;51.00;99.90;;;;;;4975132;28;20190;-83
2023/08/21 06:56:03;;;;;;;7.17;2.93;;;51.10;99.90;;;;;;4979850;28;20214;-83
2023/08/21 06:58:29;;;;;;;7.10;3.40;;;51.00;99.90;;;;;;4975148;28;20271;-82
2023/08/21 07:00:55;;;;;;;4.13;2.63;;;51.10;99.90;;;;;;4973170;28;20210;-84
2023/08/21 07:03:24;;;;;;;4.60;2.80;;;51.20;99.90;;;;;;4966752;28;20552;-84
2023/08/21 07:05:56;;;;;;;5.90;2.70;;;51.40;99.90;;;;;;4973278;28;20614;-84
2023/08/21 07:08:25;;;;;;;5.13;3.10;;;51.00;99.90;;;;;;4971941;28;20198;-84
2023/08/21 07:10:52;;;;;;;5.70;2.80;;;51.30;99.90;;;;;;4973615;28;20659;-85
2023/08/21 07:13:18;;;;;;;6.40;2.87;;;51.10;99.90;;;;;;4964003;28;20188;-85
2023/08/21 07:15:44;;;;;;;4.70;2.20;;;50.50;99.90;;;;;;4961300;28;20330;-84
2023/08/21 07:18:09;;;;;;;11.30;2.83;;;51.00;99.90;;;;;;4963970;28;20219;-85
2023/08/21 07:20:35;;;;;;;5.22;2.88;;;51.70;99.90;;;;;;4972361;28;20636;-84
2023/08/21 07:23:00;;;;;;;5.05;2.20;;;52.00;99.90;;;;;;4966694;28;20195;-85
2023/08/21 07:25:28;;;;;;;8.93;3.25;;;52.60;99.90;;;;;;4968837;28;20562;-85
2023/08/21 07:27:54;;;;;;;6.00;2.65;;;53.20;99.90;;;;;;4970233;28;20187;-84
2023/08/21 07:30:20;;;;;;;6.05;2.83;;;53.00;99.90;;;;;;4967300;28;20212;-85
2023/08/21 07:32:46;;;;;;;6.88;2.78;;;53.30;99.90;;;;;;4971391;28;20184;-85
2023/08/21 07:35:11;;;;;;;9.57;2.78;;;53.60;99.90;;;;;;4973384;28;20227;-85
2023/08/21 07:37:37;;;;;;;7.07;2.65;;;53.90;99.90;;;;;;4969050;28;20844;-85
2023/08/21 07:40:04;;;;;;;5.22;2.70;;;53.90;99.90;;;;;;4969295;28;20260;-85
2023/08/21 07:42:30;;;;;;;5.35;2.60;;;54.40;99.90;;;;;;4961342;28;20195;-85
2023/08/21 07:44:56;;;;;;;7.53;2.95;;;54.90;99.90;;;;;;4971947;28;20576;-84
2023/08/21 07:47:21;;;;;;;4.05;2.30;;;55.00;99.90;;;;;;4969101;28;20278;-85
2023/08/21 07:49:47;;;;;;;4.15;2.42;;;55.30;99.90;;;;;;4972102;28;20735;-85
2023/08/21 07:52:12;;;;;;;5.50;2.95;;;55.40;99.90;;;;;;4972229;28;20215;-86
2023/08/21 07:54:37;;;;;;;6.45;2.60;;;55.40;99.90;;;;;;4971783;28;20588;-85
2023/08/21 07:57:04;;;;;;;6.40;2.88;;;55.70;99.90;;;;;;4967218;28;20392;-86
2023/08/21 07:59:29;;;;;;;4.53;2.50;;;55.30;99.90;;;;;;4967515;28;20199;-86
2023/08/21 08:01:55;;;;;;;7.82;2.28;;;55.70;99.90;;;;;;4970506;28;20290;-85
2023/08/21 08:04:21;;;;;;;5.43;2.85;;;56.10;99.90;;;;;;4967363;28;20199;-84
2023/08/21 08:06:47;;;;;;;7.43;2.70;;;56.40;99.90;;;;;;4969539;28;20217;-85
2023/08/21 08:09:12;;;;;;;5.40;3.08;;;56.50;99.90;;;;;;4969786;28;20263;-86
2023/08/21 08:11:38;;;;;;;4.32;2.67;;;56.30;99.90;;;;;;4969257;28;20216;-85
2023/08/21 08:14:03;;;;;;;6.07;2.50;;;56.70;99.90;;;;;;4970709;28;20219;-86
2023/08/21 08:16:29;;;;;;;6.18;2.33;;;56.70;99.90;;;;;;4968666;28;20219;-84
2023/08/21 08:18:54;;;;;;;10.68;3.25;;;56.90;99.90;;;;;;4973371;28;20191;-85
2023/08/21 08:21:20;;;;;;;5.85;2.85;;;56.60;99.90;;;;;;4970000;28;20242;-86
2023/08/21 08:23:45;;;;;;;7.40;2.20;;;56.40;99.90;;;;;;4971777;28;20191;-85
2023/08/21 08:26:11;;;;;;;3.20;2.17;;;56.90;99.90;;;;;;4972949;28;20184;-85
2023/08/21 08:28:36;;;;;;;6.75;2.55;;;56.80;99.90;;;;;;4972644;28;20222;-85
2023/08/21 08:31:02;;;;;;;8.55;2.45;;;56.80;99.90;;;;;;4971071;28;20571;-85
2023/08/21 08:33:27;;;;;;;4.43;3.10;;;56.90;99.90;;;;;;4967430;28;20187;-86
2023/08/21 08:35:56;;;;;;;6.07;2.90;;;56.70;99.90;;;;;;4969528;28;20203;-84
2023/08/21 08:38:22;;;;;;;6.13;2.70;;;56.50;99.90;;;;;;4966576;28;20198;-85
2023/08/21 08:40:50;;;;;;;5.82;2.78;;;56.70;99.90;;;;;;4968940;28;20207;-85
2023/08/21 08:43:16;;;;;;;6.50;2.60;;;56.90;99.90;;;;;;4970762;28;20567;-85
2023/08/21 08:45:44;;;;;;;3.83;2.50;;;56.90;99.90;;;;;;4985485;28;20219;-85
2023/08/21 08:48:10;;;;;;;6.25;2.53;;;57.20;99.90;;;;;;4972095;28;20188;-85
2023/08/21 08:50:38;;;;;;;4.75;2.00;;;56.40;99.90;;;;;;4971413;28;20622;-86
2023/08/21 08:53:05;;;;;;;2.72;2.13;;;56.40;99.90;;;;;;4965389;28;20384;-86
2023/08/21 08:55:31;;;;;;;5.20;2.45;;;56.20;99.90;;;;;;4971706;28;20201;-86
2023/08/21 08:57:59;;;;;;;3.95;2.40;;;56.10;99.90;;;;;;4968177;28;20194;-87
2023/08/21 09:00:25;;;;;;;9.63;2.72;;;55.80;99.90;;;;;;4969562;28;20215;-86
2023/08/21 09:02:52;;;;;;;5.90;3.08;;;55.80;99.90;;;;;;4966164;28;20183;-86
2023/08/21 09:05:17;;;;;;;6.25;2.58;;;56.10;99.90;;;;;;4971128;28;20590;-85
2023/08/21 09:07:43;;;;;;;5.75;2.63;;;56.30;99.90;;;;;;4970985;28;20183;-86
2023/08/21 09:10:14;;;;;;;9.40;2.47;;;56.20;99.90;;;;;;4966892;28;20226;-86
2023/08/21 09:12:40;;;;;;;4.82;2.45;;;55.70;99.90;;;;;;4969336;28;20246;-86
2023/08/21 09:15:09;;;;;;;3.88;2.90;;;55.20;99.90;;;;;;4969388;28;20187;-86
2023/08/21 09:17:34;;;;;;;5.63;2.60;;;55.50;99.90;;;;;;4969064;28;20195;-85
2023/08/21 09:20:10;;;;;;;5.07;2.25;;;54.90;99.90;;;;;;4969641;28;20179;-85
2023/08/21 09:22:35;;;;;;;4.22;2.60;;;54.90;99.90;;;;;;4967102;28;20562;-86
2023/08/21 09:25:06;;;;;;;4.93;2.38;;;54.50;99.90;;;;;;4970757;28;20219;-85
2023/08/21 09:27:33;;;;;;;6.10;2.53;;;54.40;99.90;;;;;;4964053;28;20187;-86
2023/08/21 09:30:03;;;;;;;6.78;2.70;;;54.70;99.90;;;;;;4971085;28;20261;-84
2023/08/21 09:32:29;;;;;;;6.22;2.83;;;54.70;99.90;;;;;;4964602;28;20184;-86
2023/08/21 09:34:54;;;;;;;6.65;2.88;;;54.70;99.90;;;;;;4971392;28;20540;-87
2023/08/21 09:37:20;;;;;;;5.30;2.33;;;54.80;99.90;;;;;;4969081;28;20669;-87
2023/08/21 09:39:46;;;;;;;6.80;3.25;;;55.10;99.90;;;;;;4970167;28;20183;-86
2023/08/21 09:42:18;;;;;;;5.38;3.15;;;54.80;99.90;;;;;;4946801;28;20210;-85
2023/08/21 09:44:47;;;;;;;7.35;2.42;;;54.40;99.90;;;;;;4953546;28;20720;-84
2023/08/21 09:47:12;;;;;;;4.57;2.58;;;54.40;99.90;;;;;;4969135;28;20194;-86
2023/08/21 09:49:41;;;;;;;6.93;2.55;;;54.20;99.90;;;;;;4967799;28;20180;-86
2023/08/21 09:52:13;;;;;;;5.75;2.88;;;54.80;99.90;;;;;;4976465;28;20199;-86
2023/08/21 09:54:40;;;;;;;8.05;2.97;;;54.60;99.90;;;;;;4974991;28;20242;-86
2023/08/21 09:57:05;;;;;;;6.28;2.70;;;54.60;99.90;;;;;;4979434;28;20559;-85
2023/08/21 09:59:32;;;;;;;3.92;2.25;;;54.80;99.90;;;;;;4971734;28;20238;-85
2023/08/21 10:02:00;;;;;;;10.38;2.92;;;54.60;99.90;;;;;;4975965;28;20206;-85
2023/08/21 10:04:28;;;;;;;3.53;2.33;;;54.70;99.90;;;;;;4974795;28;20218;-86
2023/08/21 10:06:57;;;;;;;3.58;2.45;;;54.70;99.90;;;;;;4977559;28;20581;-86
2023/08/21 10:09:25;;;;;;;5.72;2.25;;;54.70;99.90;;;;;;4973762;28;20212;-86
2023/08/21 10:11:53;;;;;;;5.28;2.25;;;54.50;99.90;;;;;;4977424;28;20191;-85
2023/08/21 10:14:21;;;;;;;6.30;2.42;;;54.80;99.90;;;;;;4970811;28;20230;-85
2023/08/21 10:16:53;;;;;;;5.93;2.30;;;54.80;99.90;;;;;;4978013;28;20262;-84
2023/08/21 10:19:19;;;;;;;5.00;2.55;;;54.90;99.90;;;;;;4974451;28;20188;-87
2023/08/21 10:21:55;;;;;;;7.53;2.30;;;54.80;99.90;;;;;;4978955;28;20207;-85
2023/08/21 10:24:58;;;;;;;3.77;2.47;;;54.90;99.90;;;;;;4976065;28;20207;-85
2023/08/21 10:27:30;;;;;;;8.27;2.83;;;54.30;99.90;;;;;;4961195;28;20203;-86
2023/08/21 10:29:59;;;;;;;6.47;2.60;;;53.40;99.90;;;;;;4973847;28;20525;-85
2023/08/21 10:32:24;;;;;;;5.50;2.57;;;53.90;99.90;;;;;;4972612;28;20612;-86
2023/08/21 10:34:53;;;;;;;6.13;2.10;;;53.90;99.90;;;;;;4976314;28;20191;-85
2023/08/21 10:37:19;;;;;;;7.78;2.08;;;53.80;99.90;;;;;;4974920;28;20193;-86
2023/08/21 10:39:57;;;;;;;5.82;2.35;;;53.90;99.90;;;;;;4974512;28;20191;-85
2023/08/21 10:42:42;;;;;;;6.90;2.28;;;54.40;99.90;;;;;;4975085;28;20191;-87
2023/08/21 10:45:12;;;;;;;5.70;2.77;;;53.50;99.90;;;;;;4975021;28;20235;-85
2023/08/21 10:47:37;;;;;;;7.37;2.40;;;52.80;99.90;;;;;;4966755;28;20258;-84
2023/08/21 10:50:05;;;;;;;4.30;2.13;;;52.80;99.90;;;;;;4974518;28;20187;-85
2023/08/21 10:52:36;;;;;;;6.33;2.43;;;52.70;99.90;;;;;;4974959;28;20354;-87
2023/08/21 10:55:05;;;;;;;6.43;2.60;;;52.30;99.90;;;;;;4974797;28;20195;-86
2023/08/21 10:57:32;;;;;;;9.30;3.03;;;52.30;99.90;;;;;;4971909;28;20563;-85
2023/08/21 11:00:05;;;;;;;5.13;2.77;;;52.30;99.90;;;;;;4975045;28;20191;-85
2023/08/21 11:02:32;;;;;;;7.07;2.30;;;52.80;99.90;;;;;;4969693;28;20188;-86
2023/08/21 11:04:59;;;;;;;6.47;3.17;;;52.90;99.90;;;;;;4969691;28;20216;-85
2023/08/21 11:07:25;;;;;;;4.47;2.20;;;52.40;99.90;;;;;;4973965;28;20195;-85
2023/08/21 11:09:51;;;;;;;7.07;2.43;;;51.80;99.90;;;;;;4970155;28;20229;-84
2023/08/21 11:12:21;;;;;;;4.90;2.10;;;51.40;99.90;;;;;;4972727;28;20697;-86
2023/08/21 11:14:47;;;;;;;4.03;1.70;;;51.40;99.90;;;;;;4966900;28;20184;-86
2023/08/21 11:17:13;;;;;;;4.40;2.00;;;51.20;99.90;;;;;;4971686;28;20496;-85
2023/08/21 11:19:40;;;;;;;3.80;1.83;;;49.90;99.90;;;;;;4968276;28;20881;-85
2023/08/21 11:22:06;;;;;;;6.47;2.33;;;50.40;99.90;;;;;;4970532;28;20234;-86
2023/08/21 11:24:38;;;;;;;3.70;1.77;;;49.30;99.90;;;;;;4970333;28;20457;-85
2023/08/21 11:27:12;;;;;;;3.90;1.90;;;49.10;99.90;;;;;;4972040;28;20441;-85
2023/08/21 11:29:42;;;;;;;6.17;1.97;;;49.10;99.90;;;;;;4969369;28;20932;-84
2023/08/21 11:32:13;;;;;;;5.80;1.70;;;49.00;99.90;;;;;;4967056;28;20456;-85
2023/08/21 11:34:42;;;;;;;5.20;2.37;;;48.80;99.90;;;;;;4969663;28;21112;-84
2023/08/21 11:37:08;;;;;;;6.60;2.47;;;48.90;99.90;;;;;;4971336;28;20453;-84
2023/08/21 11:39:43;;;;;;;3.63;1.40;;;48.50;99.90;;;;;;4970715;28;20958;-82
2023/08/21 11:42:11;;;;;;;5.17;1.90;;;49.10;99.90;;;;;;4974402;28;20207;-84
2023/08/21 11:44:44;;;;;;;6.97;1.80;;;49.20;99.90;;;;;;4971838;28;20822;-85
2023/08/21 11:47:10;;;;;;;3.00;1.50;;;48.90;99.90;;;;;;4973691;28;20419;-85
2023/08/21 11:49:42;;;;;;;6.40;1.37;;;48.20;99.90;;;;;;4963772;28;20435;-83
2023/08/21 11:52:09;;;;;;;5.97;1.90;;;47.80;99.90;;;;;;4968876;28;20204;-85
2023/08/21 11:54:36;;;;;;;3.20;1.60;;;47.70;99.90;;;;;;4966665;28;21099;-84
2023/08/21 11:57:07;;;;;;;8.50;2.40;;;48.10;99.90;;;;;;4969773;28;20443;-84
2023/08/21 11:59:35;;;;;;;6.70;2.13;;;48.10;99.90;;;;;;4969716;28;20454;-85
2023/08/21 12:02:09;;;;;;;3.70;1.50;;;48.10;99.90;;;;;;4971868;28;20473;-84
2023/08/21 12:04:35;;;;;;;2.53;1.40;;;47.60;99.90;;;;;;4970149;28;20462;-85
2023/08/21 12:07:00;;;;;;;6.00;2.00;;;47.70;99.90;;;;;;4969166;28;20981;-84
2023/08/21 12:09:26;;;;;;;4.00;1.30;;;47.80;99.90;;;;;;4969936;28;20265;-83
2023/08/21 12:11:52;;;;;;;4.67;2.20;;;47.60;99.90;;;;;;4972374;28;20203;-84
2023/08/21 12:14:17;;;;;;;2.67;1.73;;;47.20;99.90;;;;;;4970645;28;20423;-83
2023/08/21 12:16:43;;;;;;;6.43;1.90;;;46.30;99.90;;;;;;4970974;28;20203;-83
2023/08/21 12:19:09;;;;;;;4.03;1.80;;;46.30;99.90;;;;;;4966973;28;20534;-84
2023/08/21 12:21:37;;;;;;;3.57;1.40;;;46.30;99.90;;;;;;4971762;28;20457;-86
2023/08/21 12:24:04;;;;;;;3.17;1.40;;;46.50;99.90;;;;;;4971066;28;20224;-85
2023/08/21 12:26:29;;;;;;;3.80;1.50;;;46.10;99.90;;;;;;4968054;28;20821;-84
2023/08/21 12:28:55;;;;;;;6.03;1.63;;;46.40;99.90;;;;;;4971137;28;20448;-81
2023/08/21 12:31:21;;;;;;;3.53;1.47;;;45.80;99.90;;;;;;4967657;28;20208;-85
2023/08/21 12:33:46;;;;;;;4.13;1.40;;;46.10;99.90;;;;;;4968970;28;20184;-84
2023/08/21 12:36:12;;;;;;;3.60;1.50;;;46.30;99.90;;;;;;4961748;28;20204;-84
2023/08/21 12:38:37;;;;;;;4.80;2.07;;;46.50;99.90;;;;;;4968955;28;20568;-85
2023/08/21 12:41:03;;;;;;;3.80;1.30;;;46.40;99.90;;;;;;4963017;28;20593;-84
2023/08/21 12:43:28;;;;;;;4.33;1.20;;;46.00;99.90;;;;;;4970865;28;20196;-84
2023/08/21 12:45:55;;;;;;;3.73;1.37;;;44.90;99.90;;;;;;4969294;28;20216;-86